sensor_id;sensor_type;location;lat;lon;timestamp;P1;durP1;ratioP1;P2;durP2;ratioP2
40951;SDS011;26682;51.660;19.338;2023-07-31T00:01:54;2.80;;;2.28;;
40951;SDS011;26682;51.660;19.338;2023-07-31T00:04:36;4.85;;;2.42;;
40951;SDS011;26682;51.660;19.338;2023-07-31T00:07:18;3.70;;;2.30;;
40951;SDS011;26682;51.660;19.338;2023-07-31T00:10:01;3.50;;;2.10;;
40951;SDS011;26682;51.660;19.338;2023-07-31T00:12:44;4.10;;;2.20;;
40951;SDS011;26682;51.660;19.338;2023-07-31T00:15:27;3.95;;;2.30;;
40951;SDS011;26682;51.660;19.338;2023-07-31T00:18:09;2.63;;;2.33;;
40951;SDS011;26682;51.660;19.338;2023-07-31T00:20:52;4.30;;;2.30;;
40951;SDS011;26682;51.660;19.338;2023-07-31T00:23:34;5.28;;;2.80;;
40951;SDS011;26682;51.660;19.338;2023-07-31T00:26:16;2.67;;;2.47;;
40951;SDS011;26682;51.660;19.338;2023-07-31T00:28:59;5.03;;;2.60;;
40951;SDS011;26682;51.660;19.338;2023-07-31T00:31:41;3.53;;;3.08;;
40951;SDS011;26682;51.660;19.338;2023-07-31T00:34:24;3.53;;;3.22;;
40951;SDS011;26682;51.660;19.338;2023-07-31T00:37:06;3.85;;;3.40;;
40951;SDS011;26682;51.660;19.338;2023-07-31T00:39:49;5.13;;;2.75;;
40951;SDS011;26682;51.660;19.338;2023-07-31T00:42:31;3.95;;;2.85;;
40951;SDS011;26682;51.660;19.338;2023-07-31T00:45:13;6.40;;;3.38;;
40951;SDS011;26682;51.660;19.338;2023-07-31T00:47:56;4.38;;;3.10;;
40951;SDS011;26682;51.660;19.338;2023-07-31T00:50:39;3.55;;;2.80;;
40951;SDS011;26682;51.660;19.338;2023-07-31T00:53:21;2.92;;;2.67;;
40951;SDS011;26682;51.660;19.338;2023-07-31T00:56:04;3.50;;;3.20;;
40951;SDS011;26682;51.660;19.338;2023-07-31T00:58:47;4.25;;;3.08;;
40951;SDS011;26682;51.660;19.338;2023-07-31T01:01:30;4.38;;;3.05;;
40951;SDS011;26682;51.660;19.338;2023-07-31T01:04:12;4.13;;;3.42;;
40951;SDS011;26682;51.660;19.338;2023-07-31T01:09:52;3.90;;;3.30;;
40951;SDS011;26682;51.660;19.338;2023-07-31T01:12:40;4.75;;;3.22;;
40951;SDS011;26682;51.660;19.338;2023-07-31T01:15:25;4.30;;;3.20;;
40951;SDS011;26682;51.660;19.338;2023-07-31T01:18:08;6.40;;;3.53;;
40951;SDS011;26682;51.660;19.338;2023-07-31T01:20:54;6.53;;;3.08;;
40951;SDS011;26682;51.660;19.338;2023-07-31T01:26:52;3.95;;;3.20;;
40951;SDS011;26682;51.660;19.338;2023-07-31T01:29:47;7.00;;;3.60;;
40951;SDS011;26682;51.660;19.338;2023-07-31T01:32:38;6.25;;;3.35;;
40951;SDS011;26682;51.660;19.338;2023-07-31T01:38:06;3.65;;;3.15;;
40951;SDS011;26682;51.660;19.338;2023-07-31T01:40:52;8.18;;;3.60;;
40951;SDS011;26682;51.660;19.338;2023-07-31T01:46:17;4.85;;;3.42;;
40951;SDS011;26682;51.660;19.338;2023-07-31T01:48:59;5.22;;;3.30;;
40951;SDS011;26682;51.660;19.338;2023-07-31T01:51:42;5.22;;;3.55;;
40951;SDS011;26682;51.660;19.338;2023-07-31T01:54:24;5.57;;;3.65;;
40951;SDS011;26682;51.660;19.338;2023-07-31T01:57:06;5.78;;;3.95;;
40951;SDS011;26682;51.660;19.338;2023-07-31T01:59:49;4.97;;;3.40;;
40951;SDS011;26682;51.660;19.338;2023-07-31T02:02:32;4.53;;;3.17;;
40951;SDS011;26682;51.660;19.338;2023-07-31T02:05:14;7.75;;;3.78;;
40951;SDS011;26682;51.660;19.338;2023-07-31T02:07:57;5.00;;;3.63;;
40951;SDS011;26682;51.660;19.338;2023-07-31T02:10:41;4.38;;;3.97;;
40951;SDS011;26682;51.660;19.338;2023-07-31T02:13:25;5.10;;;3.92;;
40951;SDS011;26682;51.660;19.338;2023-07-31T02:16:07;7.57;;;4.53;;
40951;SDS011;26682;51.660;19.338;2023-07-31T02:18:50;6.25;;;3.53;;
40951;SDS011;26682;51.660;19.338;2023-07-31T02:21:32;4.20;;;3.80;;
40951;SDS011;26682;51.660;19.338;2023-07-31T02:24:15;6.60;;;3.55;;
40951;SDS011;26682;51.660;19.338;2023-07-31T02:26:57;6.68;;;3.65;;
40951;SDS011;26682;51.660;19.338;2023-07-31T02:29:40;8.35;;;3.90;;
40951;SDS011;26682;51.660;19.338;2023-07-31T02:32:22;6.60;;;3.70;;
40951;SDS011;26682;51.660;19.338;2023-07-31T02:35:05;4.32;;;3.50;;
40951;SDS011;26682;51.660;19.338;2023-07-31T02:37:47;4.07;;;3.67;;
40951;SDS011;26682;51.660;19.338;2023-07-31T02:40:30;4.50;;;3.75;;
40951;SDS011;26682;51.660;19.338;2023-07-31T02:43:12;4.50;;;3.80;;
40951;SDS011;26682;51.660;19.338;2023-07-31T02:45:55;5.75;;;3.65;;
40951;SDS011;26682;51.660;19.338;2023-07-31T02:48:38;4.47;;;3.40;;
40951;SDS011;26682;51.660;19.338;2023-07-31T02:51:20;6.68;;;3.92;;
40951;SDS011;26682;51.660;19.338;2023-07-31T02:54:03;4.32;;;3.35;;
40951;SDS011;26682;51.660;19.338;2023-07-31T02:56:45;8.57;;;3.78;;
40951;SDS011;26682;51.660;19.338;2023-07-31T02:59:27;9.63;;;4.68;;
40951;SDS011;26682;51.660;19.338;2023-07-31T03:02:11;3.85;;;3.50;;
40951;SDS011;26682;51.660;19.338;2023-07-31T03:04:54;6.13;;;4.05;;
40951;SDS011;26682;51.660;19.338;2023-07-31T03:07:37;7.63;;;3.67;;
40951;SDS011;26682;51.660;19.338;2023-07-31T03:10:19;7.60;;;3.90;;
40951;SDS011;26682;51.660;19.338;2023-07-31T03:13:01;4.10;;;3.70;;
40951;SDS011;26682;51.660;19.338;2023-07-31T03:15:43;7.50;;;4.70;;
40951;SDS011;26682;51.660;19.338;2023-07-31T03:18:26;5.25;;;4.55;;
40951;SDS011;26682;51.660;19.338;2023-07-31T03:21:08;8.02;;;4.32;;
40951;SDS011;26682;51.660;19.338;2023-07-31T03:23:51;5.82;;;4.22;;
40951;SDS011;26682;51.660;19.338;2023-07-31T03:26:33;7.85;;;5.13;;
40951;SDS011;26682;51.660;19.338;2023-07-31T03:29:16;4.57;;;4.10;;
40951;SDS011;26682;51.660;19.338;2023-07-31T03:31:58;3.78;;;3.47;;
40951;SDS011;26682;51.660;19.338;2023-07-31T03:34:42;5.90;;;4.03;;
40951;SDS011;26682;51.660;19.338;2023-07-31T03:37:24;5.45;;;4.00;;
40951;SDS011;26682;51.660;19.338;2023-07-31T03:40:08;5.85;;;4.30;;
40951;SDS011;26682;51.660;19.338;2023-07-31T03:42:50;6.10;;;3.33;;
40951;SDS011;26682;51.660;19.338;2023-07-31T03:45:33;4.15;;;3.80;;
40951;SDS011;26682;51.660;19.338;2023-07-31T03:48:15;8.38;;;4.00;;
40951;SDS011;26682;51.660;19.338;2023-07-31T03:50:58;4.20;;;3.75;;
40951;SDS011;26682;51.660;19.338;2023-07-31T03:53:40;5.15;;;3.38;;
40951;SDS011;26682;51.660;19.338;2023-07-31T03:56:23;4.95;;;3.28;;
40951;SDS011;26682;51.660;19.338;2023-07-31T03:59:05;8.82;;;3.78;;
40951;SDS011;26682;51.660;19.338;2023-07-31T04:01:47;3.40;;;3.10;;
40951;SDS011;26682;51.660;19.338;2023-07-31T04:04:29;5.70;;;3.55;;
40951;SDS011;26682;51.660;19.338;2023-07-31T04:07:15;7.15;;;3.10;;
40951;SDS011;26682;51.660;19.338;2023-07-31T04:09:59;6.22;;;3.40;;
40951;SDS011;26682;51.660;19.338;2023-07-31T04:12:41;7.28;;;3.70;;
40951;SDS011;26682;51.660;19.338;2023-07-31T04:15:24;4.05;;;3.65;;
40951;SDS011;26682;51.660;19.338;2023-07-31T04:18:06;5.43;;;3.30;;
40951;SDS011;26682;51.660;19.338;2023-07-31T04:20:48;6.22;;;3.42;;
40951;SDS011;26682;51.660;19.338;2023-07-31T04:23:31;4.57;;;3.33;;
40951;SDS011;26682;51.660;19.338;2023-07-31T04:26:13;3.75;;;2.90;;
40951;SDS011;26682;51.660;19.338;2023-07-31T04:28:56;4.22;;;3.17;;
40951;SDS011;26682;51.660;19.338;2023-07-31T04:31:38;3.97;;;3.55;;
40951;SDS011;26682;51.660;19.338;2023-07-31T04:34:20;12.73;;;3.40;;
40951;SDS011;26682;51.660;19.338;2023-07-31T04:37:03;7.85;;;3.47;;
40951;SDS011;26682;51.660;19.338;2023-07-31T04:39:46;4.72;;;3.03;;
40951;SDS011;26682;51.660;19.338;2023-07-31T04:42:29;7.20;;;3.42;;
40951;SDS011;26682;51.660;19.338;2023-07-31T04:45:11;5.40;;;3.10;;
40951;SDS011;26682;51.660;19.338;2023-07-31T04:47:53;4.57;;;3.08;;
40951;SDS011;26682;51.660;19.338;2023-07-31T04:50:36;7.80;;;4.07;;
40951;SDS011;26682;51.660;19.338;2023-07-31T04:53:18;5.30;;;3.40;;
40951;SDS011;26682;51.660;19.338;2023-07-31T04:56:01;5.05;;;3.50;;
40951;SDS011;26682;51.660;19.338;2023-07-31T04:58:43;4.03;;;3.17;;
40951;SDS011;26682;51.660;19.338;2023-07-31T05:01:26;5.40;;;3.40;;
40951;SDS011;26682;51.660;19.338;2023-07-31T05:04:08;14.30;;;3.67;;
40951;SDS011;26682;51.660;19.338;2023-07-31T05:06:50;4.65;;;3.33;;
40951;SDS011;26682;51.660;19.338;2023-07-31T05:09:33;5.13;;;3.00;;
40951;SDS011;26682;51.660;19.338;2023-07-31T05:12:15;7.40;;;3.38;;
40951;SDS011;26682;51.660;19.338;2023-07-31T05:14:57;6.03;;;3.20;;
40951;SDS011;26682;51.660;19.338;2023-07-31T05:17:40;8.65;;;3.78;;
40951;SDS011;26682;51.660;19.338;2023-07-31T05:20:22;6.15;;;3.28;;
40951;SDS011;26682;51.660;19.338;2023-07-31T05:23:05;3.90;;;2.92;;
40951;SDS011;26682;51.660;19.338;2023-07-31T05:25:47;4.63;;;3.10;;
40951;SDS011;26682;51.660;19.338;2023-07-31T05:28:29;6.53;;;3.28;;
40951;SDS011;26682;51.660;19.338;2023-07-31T05:31:12;3.58;;;3.22;;
40951;SDS011;26682;51.660;19.338;2023-07-31T05:33:54;5.65;;;2.88;;
40951;SDS011;26682;51.660;19.338;2023-07-31T05:36:37;7.20;;;3.38;;
40951;SDS011;26682;51.660;19.338;2023-07-31T05:39:20;6.45;;;3.65;;
40951;SDS011;26682;51.660;19.338;2023-07-31T05:42:02;6.20;;;2.90;;
40951;SDS011;26682;51.660;19.338;2023-07-31T05:44:45;8.48;;;3.60;;
40951;SDS011;26682;51.660;19.338;2023-07-31T05:47:28;6.18;;;2.85;;
40951;SDS011;26682;51.660;19.338;2023-07-31T05:50:11;8.30;;;2.95;;
40951;SDS011;26682;51.660;19.338;2023-07-31T05:52:53;6.35;;;3.20;;
40951;SDS011;26682;51.660;19.338;2023-07-31T05:55:35;6.93;;;3.03;;
40951;SDS011;26682;51.660;19.338;2023-07-31T05:58:17;13.90;;;3.90;;
40951;SDS011;26682;51.660;19.338;2023-07-31T06:01:00;6.10;;;2.70;;
40951;SDS011;26682;51.660;19.338;2023-07-31T06:03:42;3.88;;;2.47;;
40951;SDS011;26682;51.660;19.338;2023-07-31T06:06:25;7.10;;;2.47;;
40951;SDS011;26682;51.660;19.338;2023-07-31T06:09:07;3.35;;;2.88;;
40951;SDS011;26682;51.660;19.338;2023-07-31T06:11:50;12.55;;;4.70;;
40951;SDS011;26682;51.660;19.338;2023-07-31T06:14:32;4.72;;;2.58;;
40951;SDS011;26682;51.660;19.338;2023-07-31T06:17:15;4.68;;;2.67;;
40951;SDS011;26682;51.660;19.338;2023-07-31T06:19:58;5.70;;;2.45;;
40951;SDS011;26682;51.660;19.338;2023-07-31T06:22:40;5.78;;;2.75;;
40951;SDS011;26682;51.660;19.338;2023-07-31T06:25:23;4.60;;;2.70;;
40951;SDS011;26682;51.660;19.338;2023-07-31T06:28:05;4.25;;;2.95;;
40951;SDS011;26682;51.660;19.338;2023-07-31T06:30:48;3.35;;;2.42;;
40951;SDS011;26682;51.660;19.338;2023-07-31T06:33:30;8.57;;;2.38;;
40951;SDS011;26682;51.660;19.338;2023-07-31T06:36:12;4.72;;;2.50;;
40951;SDS011;26682;51.660;19.338;2023-07-31T06:38:55;4.18;;;2.30;;
40951;SDS011;26682;51.660;19.338;2023-07-31T06:41:37;6.63;;;4.18;;
40951;SDS011;26682;51.660;19.338;2023-07-31T06:44:24;5.60;;;2.50;;
40951;SDS011;26682;51.660;19.338;2023-07-31T06:47:07;4.00;;;2.38;;
40951;SDS011;26682;51.660;19.338;2023-07-31T06:49:50;6.68;;;2.60;;
40951;SDS011;26682;51.660;19.338;2023-07-31T06:52:33;5.65;;;3.00;;
40951;SDS011;26682;51.660;19.338;2023-07-31T06:55:16;5.13;;;2.40;;
40951;SDS011;26682;51.660;19.338;2023-07-31T06:58:06;4.07;;;2.42;;
40951;SDS011;26682;51.660;19.338;2023-07-31T07:00:48;5.22;;;2.50;;
40951;SDS011;26682;51.660;19.338;2023-07-31T07:03:32;5.15;;;2.40;;
40951;SDS011;26682;51.660;19.338;2023-07-31T07:06:14;3.78;;;2.17;;
40951;SDS011;26682;51.660;19.338;2023-07-31T07:08:57;5.65;;;2.60;;
40951;SDS011;26682;51.660;19.338;2023-07-31T07:11:39;8.52;;;2.40;;
40951;SDS011;26682;51.660;19.338;2023-07-31T07:14:22;4.28;;;2.20;;
40951;SDS011;26682;51.660;19.338;2023-07-31T07:17:04;4.82;;;2.42;;
40951;SDS011;26682;51.660;19.338;2023-07-31T07:19:47;5.30;;;2.30;;
40951;SDS011;26682;51.660;19.338;2023-07-31T07:22:30;4.75;;;1.90;;
40951;SDS011;26682;51.660;19.338;2023-07-31T07:25:12;3.78;;;2.10;;
40951;SDS011;26682;51.660;19.338;2023-07-31T07:27:56;4.35;;;2.10;;
40951;SDS011;26682;51.660;19.338;2023-07-31T07:30:38;3.42;;;1.80;;
40951;SDS011;26682;51.660;19.338;2023-07-31T07:33:21;5.25;;;1.90;;
40951;SDS011;26682;51.660;19.338;2023-07-31T07:36:03;3.38;;;2.17;;
40951;SDS011;26682;51.660;19.338;2023-07-31T07:38:47;6.20;;;2.20;;
40951;SDS011;26682;51.660;19.338;2023-07-31T07:41:29;18.70;;;2.67;;
40951;SDS011;26682;51.660;19.338;2023-07-31T07:44:12;5.93;;;2.40;;
40951;SDS011;26682;51.660;19.338;2023-07-31T07:46:55;5.38;;;1.70;;
40951;SDS011;26682;51.660;19.338;2023-07-31T07:49:38;4.47;;;2.17;;
40951;SDS011;26682;51.660;19.338;2023-07-31T07:52:21;2.90;;;1.58;;
40951;SDS011;26682;51.660;19.338;2023-07-31T07:55:04;4.35;;;1.60;;
40951;SDS011;26682;51.660;19.338;2023-07-31T07:57:47;6.57;;;1.88;;
40951;SDS011;26682;51.660;19.338;2023-07-31T08:00:31;4.75;;;1.80;;
40951;SDS011;26682;51.660;19.338;2023-07-31T08:03:14;6.53;;;1.90;;
40951;SDS011;26682;51.660;19.338;2023-07-31T08:05:59;2.75;;;1.30;;
40951;SDS011;26682;51.660;19.338;2023-07-31T08:08:42;3.70;;;1.92;;
40951;SDS011;26682;51.660;19.338;2023-07-31T08:11:24;7.22;;;1.98;;
40951;SDS011;26682;51.660;19.338;2023-07-31T08:14:06;3.63;;;1.80;;
40951;SDS011;26682;51.660;19.338;2023-07-31T08:16:49;3.40;;;1.52;;
40951;SDS011;26682;51.660;19.338;2023-07-31T08:19:31;5.88;;;1.98;;
40951;SDS011;26682;51.660;19.338;2023-07-31T08:22:14;5.22;;;1.75;;
40951;SDS011;26682;51.660;19.338;2023-07-31T08:24:56;5.68;;;1.90;;
40951;SDS011;26682;51.660;19.338;2023-07-31T08:27:42;6.20;;;1.90;;
40951;SDS011;26682;51.660;19.338;2023-07-31T08:30:25;5.45;;;2.60;;
40951;SDS011;26682;51.660;19.338;2023-07-31T08:33:07;6.20;;;2.00;;
40951;SDS011;26682;51.660;19.338;2023-07-31T08:35:50;6.05;;;2.15;;
40951;SDS011;26682;51.660;19.338;2023-07-31T08:38:32;2.38;;;1.60;;
40951;SDS011;26682;51.660;19.338;2023-07-31T08:41:14;4.28;;;1.77;;
40951;SDS011;26682;51.660;19.338;2023-07-31T08:43:59;12.55;;;2.47;;
40951;SDS011;26682;51.660;19.338;2023-07-31T08:46:42;4.25;;;1.73;;
40951;SDS011;26682;51.660;19.338;2023-07-31T08:49:25;6.00;;;2.03;;
40951;SDS011;26682;51.660;19.338;2023-07-31T08:52:08;3.25;;;1.80;;
40951;SDS011;26682;51.660;19.338;2023-07-31T08:54:52;4.78;;;2.03;;
40951;SDS011;26682;51.660;19.338;2023-07-31T08:57:35;6.05;;;2.03;;
40951;SDS011;26682;51.660;19.338;2023-07-31T09:00:19;3.38;;;1.77;;
40951;SDS011;26682;51.660;19.338;2023-07-31T09:03:09;3.95;;;1.88;;
40951;SDS011;26682;51.660;19.338;2023-07-31T09:05:56;4.20;;;1.67;;
40951;SDS011;26682;51.660;19.338;2023-07-31T09:08:41;6.50;;;2.15;;
40951;SDS011;26682;51.660;19.338;2023-07-31T09:11:25;3.45;;;2.22;;
40951;SDS011;26682;51.660;19.338;2023-07-31T09:14:08;5.35;;;1.58;;
40951;SDS011;26682;51.660;19.338;2023-07-31T09:16:53;5.07;;;1.73;;
40951;SDS011;26682;51.660;19.338;2023-07-31T09:19:37;2.80;;;1.30;;
40951;SDS011;26682;51.660;19.338;2023-07-31T09:22:30;4.75;;;1.73;;
40951;SDS011;26682;51.660;19.338;2023-07-31T09:25:18;7.72;;;1.90;;
40951;SDS011;26682;51.660;19.338;2023-07-31T09:28:07;7.28;;;1.65;;
40951;SDS011;26682;51.660;19.338;2023-07-31T09:30:51;4.38;;;1.85;;
40951;SDS011;26682;51.660;19.338;2023-07-31T09:33:33;4.85;;;2.40;;
40951;SDS011;26682;51.660;19.338;2023-07-31T09:36:54;3.45;;;1.70;;
40951;SDS011;26682;51.660;19.338;2023-07-31T09:39:46;6.40;;;1.73;;
40951;SDS011;26682;51.660;19.338;2023-07-31T09:42:29;6.72;;;1.55;;
40951;SDS011;26682;51.660;19.338;2023-07-31T09:45:14;5.10;;;1.60;;
40951;SDS011;26682;51.660;19.338;2023-07-31T09:48:12;4.55;;;1.60;;
40951;SDS011;26682;51.660;19.338;2023-07-31T09:50:59;3.50;;;1.58;;
40951;SDS011;26682;51.660;19.338;2023-07-31T09:53:49;3.67;;;1.40;;
40951;SDS011;26682;51.660;19.338;2023-07-31T09:56:32;3.35;;;1.48;;
40951;SDS011;26682;51.660;19.338;2023-07-31T09:59:16;4.65;;;1.92;;
40951;SDS011;26682;51.660;19.338;2023-07-31T10:02:05;5.88;;;2.17;;
40951;SDS011;26682;51.660;19.338;2023-07-31T10:04:57;3.90;;;1.67;;
40951;SDS011;26682;51.660;19.338;2023-07-31T10:07:51;6.40;;;1.52;;
40951;SDS011;26682;51.660;19.338;2023-07-31T10:10:36;4.53;;;1.83;;
40951;SDS011;26682;51.660;19.338;2023-07-31T10:13:22;7.00;;;1.90;;
40951;SDS011;26682;51.660;19.338;2023-07-31T10:16:05;2.60;;;1.33;;
40951;SDS011;26682;51.660;19.338;2023-07-31T10:18:49;7.15;;;1.60;;
40951;SDS011;26682;51.660;19.338;2023-07-31T10:21:33;4.80;;;1.60;;
40951;SDS011;26682;51.660;19.338;2023-07-31T10:24:17;4.93;;;1.55;;
40951;SDS011;26682;51.660;19.338;2023-07-31T10:27:01;4.88;;;1.65;;
40951;SDS011;26682;51.660;19.338;2023-07-31T10:29:45;4.60;;;1.40;;
40951;SDS011;26682;51.660;19.338;2023-07-31T10:32:29;2.92;;;1.60;;
40951;SDS011;26682;51.660;19.338;2023-07-31T10:35:12;3.63;;;1.55;;
40951;SDS011;26682;51.660;19.338;2023-07-31T10:38:07;9.60;;;2.00;;
40951;SDS011;26682;51.660;19.338;2023-07-31T10:43:49;6.22;;;1.60;;
40951;SDS011;26682;51.660;19.338;2023-07-31T10:46:36;8.18;;;1.50;;
40951;SDS011;26682;51.660;19.338;2023-07-31T10:49:22;4.88;;;1.42;;
40951;SDS011;26682;51.660;19.338;2023-07-31T10:52:04;6.38;;;1.77;;
40951;SDS011;26682;51.660;19.338;2023-07-31T10:58:09;6.53;;;1.50;;
40951;SDS011;26682;51.660;19.338;2023-07-31T11:00:56;2.95;;;1.50;;
40951;SDS011;26682;51.660;19.338;2023-07-31T11:03:42;7.00;;;1.55;;
40951;SDS011;26682;51.660;19.338;2023-07-31T11:06:29;3.08;;;1.30;;
40951;SDS011;26682;51.660;19.338;2023-07-31T11:09:13;3.83;;;1.45;;
40951;SDS011;26682;51.660;19.338;2023-07-31T11:11:56;3.58;;;1.40;;
40951;SDS011;26682;51.660;19.338;2023-07-31T11:14:38;7.80;;;1.50;;
40951;SDS011;26682;51.660;19.338;2023-07-31T11:17:24;3.47;;;1.30;;
40951;SDS011;26682;51.660;19.338;2023-07-31T11:20:08;7.20;;;1.52;;
40951;SDS011;26682;51.660;19.338;2023-07-31T11:22:50;8.35;;;1.30;;
40951;SDS011;26682;51.660;19.338;2023-07-31T11:25:34;6.07;;;1.42;;
40951;SDS011;26682;51.660;19.338;2023-07-31T11:28:17;8.93;;;2.00;;
40951;SDS011;26682;51.660;19.338;2023-07-31T11:31:01;5.10;;;1.52;;
40951;SDS011;26682;51.660;19.338;2023-07-31T11:33:44;7.85;;;1.42;;
40951;SDS011;26682;51.660;19.338;2023-07-31T11:36:27;5.82;;;1.83;;
40951;SDS011;26682;51.660;19.338;2023-07-31T11:39:09;3.42;;;1.25;;
40951;SDS011;26682;51.660;19.338;2023-07-31T11:41:58;5.25;;;1.42;;
40951;SDS011;26682;51.660;19.338;2023-07-31T11:44:41;3.85;;;1.20;;
40951;SDS011;26682;51.660;19.338;2023-07-31T11:47:29;3.60;;;1.20;;
40951;SDS011;26682;51.660;19.338;2023-07-31T11:50:16;3.15;;;1.30;;
40951;SDS011;26682;51.660;19.338;2023-07-31T11:52:59;3.25;;;1.20;;
40951;SDS011;26682;51.660;19.338;2023-07-31T11:55:44;4.10;;;1.40;;
40951;SDS011;26682;51.660;19.338;2023-07-31T11:58:28;7.93;;;1.25;;
40951;SDS011;26682;51.660;19.338;2023-07-31T12:01:11;3.78;;;1.30;;
40951;SDS011;26682;51.660;19.338;2023-07-31T12:03:58;3.75;;;1.13;;
40951;SDS011;26682;51.660;19.338;2023-07-31T12:06:41;6.43;;;1.42;;
40951;SDS011;26682;51.660;19.338;2023-07-31T12:09:26;6.93;;;1.60;;
40951;SDS011;26682;51.660;19.338;2023-07-31T12:12:08;3.80;;;1.20;;
40951;SDS011;26682;51.660;19.338;2023-07-31T12:14:51;3.65;;;1.27;;
40951;SDS011;26682;51.660;19.338;2023-07-31T12:17:33;3.78;;;1.30;;
40951;SDS011;26682;51.660;19.338;2023-07-31T12:20:16;4.55;;;1.38;;
40951;SDS011;26682;51.660;19.338;2023-07-31T12:22:58;7.97;;;1.38;;
40951;SDS011;26682;51.660;19.338;2023-07-31T12:25:41;3.65;;;1.38;;
40951;SDS011;26682;51.660;19.338;2023-07-31T12:28:24;3.90;;;1.42;;
40951;SDS011;26682;51.660;19.338;2023-07-31T12:31:08;4.28;;;1.20;;
40951;SDS011;26682;51.660;19.338;2023-07-31T12:33:52;3.05;;;1.00;;
40951;SDS011;26682;51.660;19.338;2023-07-31T12:36:35;3.92;;;1.30;;
40951;SDS011;26682;51.660;19.338;2023-07-31T12:39:18;4.00;;;1.38;;
40951;SDS011;26682;51.660;19.338;2023-07-31T12:42:00;4.65;;;1.30;;
40951;SDS011;26682;51.660;19.338;2023-07-31T12:44:43;4.25;;;1.60;;
40951;SDS011;26682;51.660;19.338;2023-07-31T12:47:25;4.25;;;0.95;;
40951;SDS011;26682;51.660;19.338;2023-07-31T12:50:07;4.18;;;1.15;;
40951;SDS011;26682;51.660;19.338;2023-07-31T12:52:50;3.97;;;1.30;;
40951;SDS011;26682;51.660;19.338;2023-07-31T12:55:34;2.80;;;1.27;;
40951;SDS011;26682;51.660;19.338;2023-07-31T12:58:18;5.17;;;1.30;;
40951;SDS011;26682;51.660;19.338;2023-07-31T13:01:01;4.03;;;1.27;;
40951;SDS011;26682;51.660;19.338;2023-07-31T13:03:44;2.95;;;1.30;;
40951;SDS011;26682;51.660;19.338;2023-07-31T13:06:26;5.07;;;1.33;;
40951;SDS011;26682;51.660;19.338;2023-07-31T13:09:09;4.72;;;1.70;;
40951;SDS011;26682;51.660;19.338;2023-07-31T13:11:52;8.13;;;1.23;;
40951;SDS011;26682;51.660;19.338;2023-07-31T13:14:35;6.03;;;1.30;;
40951;SDS011;26682;51.660;19.338;2023-07-31T13:17:17;3.92;;;1.33;;
40951;SDS011;26682;51.660;19.338;2023-07-31T13:20:01;2.55;;;1.20;;
40951;SDS011;26682;51.660;19.338;2023-07-31T13:22:45;10.20;;;1.92;;
40951;SDS011;26682;51.660;19.338;2023-07-31T13:25:28;4.03;;;1.38;;
40951;SDS011;26682;51.660;19.338;2023-07-31T13:28:10;3.38;;;0.98;;
40951;SDS011;26682;51.660;19.338;2023-07-31T13:30:53;5.75;;;1.40;;
40951;SDS011;26682;51.660;19.338;2023-07-31T13:33:35;2.50;;;1.15;;
40951;SDS011;26682;51.660;19.338;2023-07-31T13:39:03;3.92;;;1.27;;
40951;SDS011;26682;51.660;19.338;2023-07-31T13:41:46;4.65;;;1.45;;
40951;SDS011;26682;51.660;19.338;2023-07-31T13:44:28;3.17;;;1.17;;
40951;SDS011;26682;51.660;19.338;2023-07-31T13:47:11;5.57;;;1.45;;
40951;SDS011;26682;51.660;19.338;2023-07-31T13:49:53;4.78;;;1.55;;
40951;SDS011;26682;51.660;19.338;2023-07-31T13:52:36;12.85;;;1.67;;
40951;SDS011;26682;51.660;19.338;2023-07-31T13:55:18;7.43;;;1.40;;
40951;SDS011;26682;51.660;19.338;2023-07-31T13:58:01;3.25;;;1.30;;
40951;SDS011;26682;51.660;19.338;2023-07-31T14:00:43;6.35;;;1.48;;
40951;SDS011;26682;51.660;19.338;2023-07-31T14:03:26;5.97;;;1.25;;
40951;SDS011;26682;51.660;19.338;2023-07-31T14:06:08;4.55;;;1.30;;
40951;SDS011;26682;51.660;19.338;2023-07-31T14:08:51;4.20;;;1.80;;
40951;SDS011;26682;51.660;19.338;2023-07-31T14:11:33;2.92;;;1.40;;
40951;SDS011;26682;51.660;19.338;2023-07-31T14:14:16;5.78;;;1.30;;
40951;SDS011;26682;51.660;19.338;2023-07-31T14:17:00;5.18;;;1.50;;
40951;SDS011;26682;51.660;19.338;2023-07-31T14:19:43;3.03;;;1.30;;
40951;SDS011;26682;51.660;19.338;2023-07-31T14:22:29;7.30;;;1.05;;
40951;SDS011;26682;51.660;19.338;2023-07-31T14:25:12;8.13;;;1.67;;
40951;SDS011;26682;51.660;19.338;2023-07-31T14:27:55;5.10;;;1.40;;
40951;SDS011;26682;51.660;19.338;2023-07-31T14:30:37;5.22;;;1.55;;
40951;SDS011;26682;51.660;19.338;2023-07-31T14:33:20;5.15;;;1.20;;
40951;SDS011;26682;51.660;19.338;2023-07-31T14:36:02;4.10;;;1.38;;
40951;SDS011;26682;51.660;19.338;2023-07-31T14:38:45;5.25;;;1.42;;
40951;SDS011;26682;51.660;19.338;2023-07-31T14:41:27;7.90;;;1.23;;
40951;SDS011;26682;51.660;19.338;2023-07-31T14:44:10;6.78;;;1.55;;
40951;SDS011;26682;51.660;19.338;2023-07-31T14:46:52;3.25;;;1.25;;
40951;SDS011;26682;51.660;19.338;2023-07-31T14:49:34;3.30;;;1.48;;
40951;SDS011;26682;51.660;19.338;2023-07-31T14:52:17;4.78;;;1.20;;
40951;SDS011;26682;51.660;19.338;2023-07-31T14:54:59;7.78;;;1.85;;
40951;SDS011;26682;51.660;19.338;2023-07-31T14:57:42;6.40;;;1.40;;
40951;SDS011;26682;51.660;19.338;2023-07-31T15:00:24;4.07;;;1.30;;
40951;SDS011;26682;51.660;19.338;2023-07-31T15:03:08;5.00;;;1.40;;
40951;SDS011;26682;51.660;19.338;2023-07-31T15:05:50;4.05;;;1.45;;
40951;SDS011;26682;51.660;19.338;2023-07-31T15:08:33;6.45;;;1.50;;
40951;SDS011;26682;51.660;19.338;2023-07-31T15:11:15;5.57;;;1.30;;
40951;SDS011;26682;51.660;19.338;2023-07-31T15:13:58;4.50;;;1.40;;
40951;SDS011;26682;51.660;19.338;2023-07-31T15:16:40;4.30;;;1.58;;
40951;SDS011;26682;51.660;19.338;2023-07-31T15:19:23;6.38;;;1.77;;
40951;SDS011;26682;51.660;19.338;2023-07-31T15:22:06;3.70;;;1.38;;
40951;SDS011;26682;51.660;19.338;2023-07-31T15:24:48;3.00;;;1.15;;
40951;SDS011;26682;51.660;19.338;2023-07-31T15:27:31;2.40;;;1.30;;
40951;SDS011;26682;51.660;19.338;2023-07-31T15:30:13;2.80;;;1.10;;
40951;SDS011;26682;51.660;19.338;2023-07-31T15:32:55;6.55;;;1.65;;
40951;SDS011;26682;51.660;19.338;2023-07-31T15:35:38;2.95;;;1.40;;
40951;SDS011;26682;51.660;19.338;2023-07-31T15:38:23;3.13;;;1.33;;
40951;SDS011;26682;51.660;19.338;2023-07-31T15:41:06;2.22;;;1.23;;
40951;SDS011;26682;51.660;19.338;2023-07-31T15:43:48;4.82;;;1.50;;
40951;SDS011;26682;51.660;19.338;2023-07-31T15:46:31;4.10;;;1.50;;
40951;SDS011;26682;51.660;19.338;2023-07-31T15:49:14;6.43;;;1.55;;
40951;SDS011;26682;51.660;19.338;2023-07-31T15:51:57;3.42;;;1.60;;
40951;SDS011;26682;51.660;19.338;2023-07-31T15:54:39;5.18;;;1.98;;
40951;SDS011;26682;51.660;19.338;2023-07-31T15:57:22;3.20;;;1.70;;
40951;SDS011;26682;51.660;19.338;2023-07-31T16:00:05;1.85;;;1.33;;
40951;SDS011;26682;51.660;19.338;2023-07-31T16:02:49;2.00;;;1.60;;
40951;SDS011;26682;51.660;19.338;2023-07-31T16:05:31;6.80;;;1.95;;
40951;SDS011;26682;51.660;19.338;2023-07-31T16:08:14;9.98;;;3.28;;
40951;SDS011;26682;51.660;19.338;2023-07-31T16:10:56;2.72;;;1.58;;
40951;SDS011;26682;51.660;19.338;2023-07-31T16:13:39;5.75;;;1.90;;
40951;SDS011;26682;51.660;19.338;2023-07-31T16:16:21;3.33;;;1.63;;
40951;SDS011;26682;51.660;19.338;2023-07-31T16:19:04;3.75;;;1.70;;
40951;SDS011;26682;51.660;19.338;2023-07-31T16:21:46;4.25;;;1.90;;
40951;SDS011;26682;51.660;19.338;2023-07-31T16:24:29;5.50;;;1.73;;
40951;SDS011;26682;51.660;19.338;2023-07-31T16:27:11;1.80;;;1.70;;
40951;SDS011;26682;51.660;19.338;2023-07-31T16:29:54;2.33;;;1.92;;